Terminal Aerodrome Forecast
Issued by NWS Billings, MT

Home | Current Version | Previous Version | Text Only | Print | Product List | Glossary On
Versions: 1 2 3 4 5 6 7 8 9 10 11 12
000
FTUS45 KBYZ 300521
TAFBIL
TAF
KBIL 300521Z 3006/3106 02005KT P6SM FEW110 WS005/18037KT
     FM301500 22008KT P6SM FEW120
     FM302100 17008KT P6SM SCT120=

USA.gov is the U.S. government's official web portal to all federal, state and local government web resources and services.